sensor_id;sensor_type;location;lat;lon;timestamp;P1;durP1;ratioP1;P2;durP2;ratioP2
77234;SDS011;66253;50.526;14.974;2023-03-24T00:01:18;9.00;;;3.70;;
77234;SDS011;66253;50.526;14.974;2023-03-24T00:03:44;9.40;;;4.60;;
77234;SDS011;66253;50.526;14.974;2023-03-24T00:06:13;7.80;;;4.00;;
77234;SDS011;66253;50.526;14.974;2023-03-24T00:08:40;10.00;;;4.60;;
77234;SDS011;66253;50.526;14.974;2023-03-24T00:11:12;7.90;;;4.10;;
77234;SDS011;66253;50.526;14.974;2023-03-24T00:13:39;8.70;;;5.10;;
77234;SDS011;66253;50.526;14.974;2023-03-24T00:16:06;7.70;;;3.90;;
77234;SDS011;66253;50.526;14.974;2023-03-24T00:18:37;9.80;;;4.60;;
77234;SDS011;66253;50.526;14.974;2023-03-24T00:21:07;10.20;;;4.10;;
77234;SDS011;66253;50.526;14.974;2023-03-24T00:23:36;7.90;;;4.40;;
77234;SDS011;66253;50.526;14.974;2023-03-24T00:26:06;9.40;;;3.90;;
77234;SDS011;66253;50.526;14.974;2023-03-24T00:28:34;10.20;;;4.00;;
77234;SDS011;66253;50.526;14.974;2023-03-24T00:31:04;10.30;;;4.10;;
77234;SDS011;66253;50.526;14.974;2023-03-24T00:33:33;9.00;;;3.60;;
77234;SDS011;66253;50.526;14.974;2023-03-24T00:36:01;7.40;;;3.70;;
77234;SDS011;66253;50.526;14.974;2023-03-24T00:38:29;11.00;;;4.10;;
77234;SDS011;66253;50.526;14.974;2023-03-24T00:40:58;10.00;;;4.20;;
77234;SDS011;66253;50.526;14.974;2023-03-24T00:43:25;10.20;;;5.20;;
77234;SDS011;66253;50.526;14.974;2023-03-24T00:45:59;13.50;;;5.60;;
77234;SDS011;66253;50.526;14.974;2023-03-24T00:48:28;16.70;;;6.60;;
77234;SDS011;66253;50.526;14.974;2023-03-24T00:51:00;24.40;;;9.40;;
77234;SDS011;66253;50.526;14.974;2023-03-24T00:53:29;18.90;;;7.80;;
77234;SDS011;66253;50.526;14.974;2023-03-24T00:55:54;15.50;;;6.00;;
77234;SDS011;66253;50.526;14.974;2023-03-24T00:58:22;9.90;;;4.80;;
77234;SDS011;66253;50.526;14.974;2023-03-24T01:00:50;9.30;;;4.60;;
77234;SDS011;66253;50.526;14.974;2023-03-24T01:03:18;11.90;;;6.00;;
77234;SDS011;66253;50.526;14.974;2023-03-24T01:05:53;11.30;;;4.30;;
77234;SDS011;66253;50.526;14.974;2023-03-24T01:08:22;8.20;;;3.70;;
77234;SDS011;66253;50.526;14.974;2023-03-24T01:10:52;12.70;;;4.20;;
77234;SDS011;66253;50.526;14.974;2023-03-24T01:13:24;8.10;;;3.20;;
77234;SDS011;66253;50.526;14.974;2023-03-24T01:15:52;8.30;;;4.00;;
77234;SDS011;66253;50.526;14.974;2023-03-24T01:18:19;11.40;;;4.20;;
77234;SDS011;66253;50.526;14.974;2023-03-24T01:20:46;8.80;;;4.00;;
77234;SDS011;66253;50.526;14.974;2023-03-24T01:25:45;8.00;;;4.30;;
77234;SDS011;66253;50.526;14.974;2023-03-24T01:28:16;7.40;;;3.30;;
77234;SDS011;66253;50.526;14.974;2023-03-24T01:30:45;7.90;;;2.80;;
77234;SDS011;66253;50.526;14.974;2023-03-24T01:33:11;6.20;;;3.80;;
77234;SDS011;66253;50.526;14.974;2023-03-24T01:35:37;7.20;;;3.80;;
77234;SDS011;66253;50.526;14.974;2023-03-24T01:38:04;6.30;;;3.20;;
77234;SDS011;66253;50.526;14.974;2023-03-24T01:40:35;8.30;;;3.50;;
77234;SDS011;66253;50.526;14.974;2023-03-24T01:43:05;7.10;;;3.50;;
77234;SDS011;66253;50.526;14.974;2023-03-24T01:50:59;8.00;;;3.60;;
77234;SDS011;66253;50.526;14.974;2023-03-24T01:53:32;5.70;;;2.70;;
77234;SDS011;66253;50.526;14.974;2023-03-24T01:56:01;7.30;;;3.00;;
77234;SDS011;66253;50.526;14.974;2023-03-24T01:58:30;7.30;;;3.70;;
77234;SDS011;66253;50.526;14.974;2023-03-24T02:00:57;7.60;;;4.20;;
77234;SDS011;66253;50.526;14.974;2023-03-24T02:03:31;8.70;;;3.90;;
77234;SDS011;66253;50.526;14.974;2023-03-24T02:06:02;9.30;;;4.50;;
77234;SDS011;66253;50.526;14.974;2023-03-24T02:08:47;8.30;;;3.80;;
77234;SDS011;66253;50.526;14.974;2023-03-24T02:11:17;10.10;;;4.70;;
77234;SDS011;66253;50.526;14.974;2023-03-24T02:13:43;10.80;;;4.20;;
77234;SDS011;66253;50.526;14.974;2023-03-24T02:19:23;7.10;;;4.20;;
77234;SDS011;66253;50.526;14.974;2023-03-24T02:27:21;12.20;;;4.10;;
77234;SDS011;66253;50.526;14.974;2023-03-24T02:30:32;6.50;;;2.60;;
77234;SDS011;66253;50.526;14.974;2023-03-24T02:42:04;7.30;;;3.20;;
77234;SDS011;66253;50.526;14.974;2023-03-24T02:48:10;7.40;;;4.20;;
77234;SDS011;66253;50.526;14.974;2023-03-24T02:50:45;11.10;;;3.90;;
77234;SDS011;66253;50.526;14.974;2023-03-24T02:53:20;6.90;;;2.90;;
77234;SDS011;66253;50.526;14.974;2023-03-24T02:56:13;7.90;;;3.60;;
77234;SDS011;66253;50.526;14.974;2023-03-24T03:01:18;5.50;;;2.60;;
77234;SDS011;66253;50.526;14.974;2023-03-24T03:04:02;6.60;;;2.60;;
77234;SDS011;66253;50.526;14.974;2023-03-24T03:06:34;5.80;;;2.80;;
77234;SDS011;66253;50.526;14.974;2023-03-24T03:09:07;6.50;;;2.70;;
77234;SDS011;66253;50.526;14.974;2023-03-24T03:11:37;9.50;;;4.50;;
77234;SDS011;66253;50.526;14.974;2023-03-24T03:14:07;7.30;;;4.00;;
77234;SDS011;66253;50.526;14.974;2023-03-24T03:16:39;6.30;;;3.80;;
77234;SDS011;66253;50.526;14.974;2023-03-24T03:19:22;8.20;;;3.00;;
77234;SDS011;66253;50.526;14.974;2023-03-24T03:21:55;6.60;;;3.00;;
77234;SDS011;66253;50.526;14.974;2023-03-24T03:24:29;6.30;;;3.30;;
77234;SDS011;66253;50.526;14.974;2023-03-24T03:27:03;6.30;;;2.90;;
77234;SDS011;66253;50.526;14.974;2023-03-24T03:29:36;8.80;;;3.00;;
77234;SDS011;66253;50.526;14.974;2023-03-24T03:32:06;6.50;;;3.10;;
77234;SDS011;66253;50.526;14.974;2023-03-24T03:34:37;6.20;;;3.00;;
77234;SDS011;66253;50.526;14.974;2023-03-24T03:40:29;8.90;;;3.90;;
77234;SDS011;66253;50.526;14.974;2023-03-24T03:43:00;9.20;;;4.00;;
77234;SDS011;66253;50.526;14.974;2023-03-24T03:45:29;7.80;;;3.80;;
77234;SDS011;66253;50.526;14.974;2023-03-24T03:48:00;6.90;;;3.20;;
77234;SDS011;66253;50.526;14.974;2023-03-24T03:50:27;6.70;;;3.40;;
77234;SDS011;66253;50.526;14.974;2023-03-24T03:52:53;7.20;;;3.30;;
77234;SDS011;66253;50.526;14.974;2023-03-24T03:55:30;7.40;;;3.60;;
77234;SDS011;66253;50.526;14.974;2023-03-24T03:57:56;5.80;;;3.10;;
77234;SDS011;66253;50.526;14.974;2023-03-24T04:00:22;6.60;;;3.40;;
77234;SDS011;66253;50.526;14.974;2023-03-24T04:02:53;7.20;;;3.00;;
77234;SDS011;66253;50.526;14.974;2023-03-24T04:05:26;6.40;;;4.10;;
77234;SDS011;66253;50.526;14.974;2023-03-24T04:22:43;8.00;;;3.80;;
77234;SDS011;66253;50.526;14.974;2023-03-24T04:31:29;7.90;;;3.70;;
77234;SDS011;66253;50.526;14.974;2023-03-24T04:36:35;7.10;;;3.00;;
77234;SDS011;66253;50.526;14.974;2023-03-24T04:39:12;7.50;;;3.40;;
77234;SDS011;66253;50.526;14.974;2023-03-24T04:41:46;7.40;;;3.20;;
77234;SDS011;66253;50.526;14.974;2023-03-24T04:44:12;8.20;;;3.70;;
77234;SDS011;66253;50.526;14.974;2023-03-24T04:46:42;7.40;;;3.10;;
77234;SDS011;66253;50.526;14.974;2023-03-24T04:49:08;8.30;;;4.90;;
77234;SDS011;66253;50.526;14.974;2023-03-24T04:51:34;8.20;;;3.90;;
77234;SDS011;66253;50.526;14.974;2023-03-24T04:54:00;8.50;;;4.00;;
77234;SDS011;66253;50.526;14.974;2023-03-24T04:56:28;7.70;;;3.80;;
77234;SDS011;66253;50.526;14.974;2023-03-24T04:58:58;6.90;;;3.50;;
77234;SDS011;66253;50.526;14.974;2023-03-24T05:01:25;6.50;;;3.10;;
77234;SDS011;66253;50.526;14.974;2023-03-24T05:03:57;9.40;;;4.30;;
77234;SDS011;66253;50.526;14.974;2023-03-24T05:06:26;7.70;;;4.10;;
77234;SDS011;66253;50.526;14.974;2023-03-24T05:09:13;8.60;;;4.10;;
77234;SDS011;66253;50.526;14.974;2023-03-24T05:11:39;7.40;;;3.90;;
77234;SDS011;66253;50.526;14.974;2023-03-24T05:14:11;7.60;;;3.60;;
77234;SDS011;66253;50.526;14.974;2023-03-24T05:16:37;7.70;;;4.10;;
77234;SDS011;66253;50.526;14.974;2023-03-24T05:19:12;8.20;;;4.90;;
77234;SDS011;66253;50.526;14.974;2023-03-24T05:21:43;8.50;;;4.30;;
77234;SDS011;66253;50.526;14.974;2023-03-24T05:24:11;7.90;;;3.80;;
77234;SDS011;66253;50.526;14.974;2023-03-24T05:26:51;5.70;;;3.30;;
77234;SDS011;66253;50.526;14.974;2023-03-24T05:29:21;15.40;;;7.10;;
77234;SDS011;66253;50.526;14.974;2023-03-24T05:31:49;23.40;;;11.00;;
77234;SDS011;66253;50.526;14.974;2023-03-24T05:34:15;21.90;;;9.80;;
77234;SDS011;66253;50.526;14.974;2023-03-24T05:36:41;20.60;;;10.70;;
77234;SDS011;66253;50.526;14.974;2023-03-24T05:39:06;21.10;;;11.10;;
77234;SDS011;66253;50.526;14.974;2023-03-24T05:41:32;19.10;;;10.30;;
77234;SDS011;66253;50.526;14.974;2023-03-24T05:44:05;21.70;;;11.30;;
77234;SDS011;66253;50.526;14.974;2023-03-24T05:46:31;26.00;;;12.10;;
77234;SDS011;66253;50.526;14.974;2023-03-24T05:49:05;27.50;;;11.90;;
77234;SDS011;66253;50.526;14.974;2023-03-24T05:51:30;33.40;;;14.20;;
77234;SDS011;66253;50.526;14.974;2023-03-24T05:53:56;23.00;;;10.00;;
77234;SDS011;66253;50.526;14.974;2023-03-24T05:56:45;19.60;;;9.30;;
77234;SDS011;66253;50.526;14.974;2023-03-24T05:59:13;14.80;;;7.60;;
77234;SDS011;66253;50.526;14.974;2023-03-24T06:01:38;12.20;;;5.80;;
77234;SDS011;66253;50.526;14.974;2023-03-24T06:04:08;10.50;;;5.70;;
77234;SDS011;66253;50.526;14.974;2023-03-24T06:06:34;9.70;;;5.50;;
77234;SDS011;66253;50.526;14.974;2023-03-24T06:09:03;10.40;;;7.10;;
77234;SDS011;66253;50.526;14.974;2023-03-24T06:11:29;14.20;;;8.20;;
77234;SDS011;66253;50.526;14.974;2023-03-24T06:13:55;14.00;;;7.80;;
77234;SDS011;66253;50.526;14.974;2023-03-24T06:16:25;15.70;;;10.20;;
77234;SDS011;66253;50.526;14.974;2023-03-24T06:18:51;17.10;;;9.30;;
77234;SDS011;66253;50.526;14.974;2023-03-24T06:21:20;11.20;;;6.60;;
77234;SDS011;66253;50.526;14.974;2023-03-24T06:23:46;16.90;;;8.30;;
77234;SDS011;66253;50.526;14.974;2023-03-24T06:26:12;16.20;;;8.90;;
77234;SDS011;66253;50.526;14.974;2023-03-24T06:28:40;13.70;;;8.40;;
77234;SDS011;66253;50.526;14.974;2023-03-24T06:31:07;18.90;;;9.50;;
77234;SDS011;66253;50.526;14.974;2023-03-24T06:33:42;28.70;;;13.30;;
77234;SDS011;66253;50.526;14.974;2023-03-24T06:36:09;22.40;;;11.60;;
77234;SDS011;66253;50.526;14.974;2023-03-24T06:38:36;22.20;;;11.40;;
77234;SDS011;66253;50.526;14.974;2023-03-24T06:41:03;24.10;;;12.60;;
77234;SDS011;66253;50.526;14.974;2023-03-24T06:43:30;23.40;;;10.50;;
77234;SDS011;66253;50.526;14.974;2023-03-24T06:45:56;47.80;;;16.80;;
77234;SDS011;66253;50.526;14.974;2023-03-24T06:48:22;15.20;;;7.60;;
77234;SDS011;66253;50.526;14.974;2023-03-24T06:50:50;25.70;;;11.10;;
77234;SDS011;66253;50.526;14.974;2023-03-24T06:53:28;17.30;;;7.90;;
77234;SDS011;66253;50.526;14.974;2023-03-24T06:55:54;12.80;;;6.40;;
77234;SDS011;66253;50.526;14.974;2023-03-24T06:58:20;11.70;;;7.20;;
77234;SDS011;66253;50.526;14.974;2023-03-24T07:00:46;13.60;;;8.00;;
77234;SDS011;66253;50.526;14.974;2023-03-24T07:03:14;13.90;;;7.80;;
77234;SDS011;66253;50.526;14.974;2023-03-24T07:05:41;13.10;;;7.60;;
77234;SDS011;66253;50.526;14.974;2023-03-24T07:08:09;13.90;;;6.80;;
77234;SDS011;66253;50.526;14.974;2023-03-24T07:10:39;12.10;;;6.60;;
77234;SDS011;66253;50.526;14.974;2023-03-24T07:13:05;9.00;;;4.60;;
77234;SDS011;66253;50.526;14.974;2023-03-24T07:15:32;7.50;;;4.30;;
77234;SDS011;66253;50.526;14.974;2023-03-24T07:17:58;6.30;;;3.50;;
77234;SDS011;66253;50.526;14.974;2023-03-24T07:20:25;8.50;;;4.30;;
77234;SDS011;66253;50.526;14.974;2023-03-24T07:22:53;9.20;;;4.00;;
77234;SDS011;66253;50.526;14.974;2023-03-24T07:27:45;7.40;;;4.90;;
77234;SDS011;66253;50.526;14.974;2023-03-24T07:30:12;7.00;;;3.90;;
77234;SDS011;66253;50.526;14.974;2023-03-24T07:32:38;9.60;;;4.60;;
77234;SDS011;66253;50.526;14.974;2023-03-24T07:35:10;8.00;;;4.40;;
77234;SDS011;66253;50.526;14.974;2023-03-24T07:37:37;8.90;;;4.40;;
77234;SDS011;66253;50.526;14.974;2023-03-24T07:40:03;7.80;;;3.90;;
77234;SDS011;66253;50.526;14.974;2023-03-24T07:42:36;6.60;;;4.10;;
77234;SDS011;66253;50.526;14.974;2023-03-24T07:45:03;7.90;;;4.10;;
77234;SDS011;66253;50.526;14.974;2023-03-24T07:47:33;8.00;;;4.60;;
77234;SDS011;66253;50.526;14.974;2023-03-24T07:49:59;7.70;;;3.80;;
77234;SDS011;66253;50.526;14.974;2023-03-24T07:52:25;7.10;;;3.60;;
77234;SDS011;66253;50.526;14.974;2023-03-24T07:54:50;10.10;;;5.00;;
77234;SDS011;66253;50.526;14.974;2023-03-24T07:57:16;8.70;;;5.60;;
77234;SDS011;66253;50.526;14.974;2023-03-24T07:59:42;9.30;;;5.20;;
77234;SDS011;66253;50.526;14.974;2023-03-24T08:02:16;8.30;;;4.80;;
77234;SDS011;66253;50.526;14.974;2023-03-24T08:04:43;9.20;;;4.90;;
77234;SDS011;66253;50.526;14.974;2023-03-24T08:07:09;8.50;;;4.30;;
77234;SDS011;66253;50.526;14.974;2023-03-24T08:09:37;7.80;;;4.60;;
77234;SDS011;66253;50.526;14.974;2023-03-24T08:12:04;7.40;;;4.00;;
77234;SDS011;66253;50.526;14.974;2023-03-24T08:14:30;7.40;;;4.60;;
77234;SDS011;66253;50.526;14.974;2023-03-24T08:16:55;7.20;;;4.10;;
77234;SDS011;66253;50.526;14.974;2023-03-24T08:19:21;7.50;;;4.00;;
77234;SDS011;66253;50.526;14.974;2023-03-24T08:21:46;8.80;;;4.90;;
77234;SDS011;66253;50.526;14.974;2023-03-24T08:24:12;7.90;;;4.50;;
77234;SDS011;66253;50.526;14.974;2023-03-24T08:26:37;8.10;;;4.60;;
77234;SDS011;66253;50.526;14.974;2023-03-24T08:29:04;7.70;;;5.20;;
77234;SDS011;66253;50.526;14.974;2023-03-24T08:31:31;7.80;;;5.00;;
77234;SDS011;66253;50.526;14.974;2023-03-24T08:33:57;9.60;;;6.10;;
77234;SDS011;66253;50.526;14.974;2023-03-24T08:36:24;5.70;;;3.00;;
77234;SDS011;66253;50.526;14.974;2023-03-24T08:38:54;7.00;;;2.90;;
77234;SDS011;66253;50.526;14.974;2023-03-24T08:41:21;6.20;;;3.10;;
77234;SDS011;66253;50.526;14.974;2023-03-24T08:43:54;6.40;;;2.80;;
77234;SDS011;66253;50.526;14.974;2023-03-24T08:46:20;6.50;;;3.20;;
77234;SDS011;66253;50.526;14.974;2023-03-24T08:48:46;6.10;;;2.70;;
77234;SDS011;66253;50.526;14.974;2023-03-24T08:51:14;8.00;;;2.70;;
77234;SDS011;66253;50.526;14.974;2023-03-24T08:53:40;6.00;;;3.10;;
77234;SDS011;66253;50.526;14.974;2023-03-24T08:56:07;5.60;;;2.80;;
77234;SDS011;66253;50.526;14.974;2023-03-24T08:58:33;6.30;;;2.20;;
77234;SDS011;66253;50.526;14.974;2023-03-24T09:01:00;4.60;;;2.20;;
77234;SDS011;66253;50.526;14.974;2023-03-24T09:03:26;8.40;;;2.50;;
77234;SDS011;66253;50.526;14.974;2023-03-24T09:05:54;4.60;;;2.20;;
77234;SDS011;66253;50.526;14.974;2023-03-24T09:08:23;6.10;;;3.10;;
77234;SDS011;66253;50.526;14.974;2023-03-24T09:10:50;5.50;;;2.30;;
77234;SDS011;66253;50.526;14.974;2023-03-24T09:13:16;6.00;;;2.50;;
77234;SDS011;66253;50.526;14.974;2023-03-24T09:15:49;5.60;;;2.90;;
77234;SDS011;66253;50.526;14.974;2023-03-24T09:18:17;4.90;;;2.20;;
77234;SDS011;66253;50.526;14.974;2023-03-24T09:20:44;4.60;;;2.10;;
77234;SDS011;66253;50.526;14.974;2023-03-24T09:23:10;4.80;;;2.30;;
77234;SDS011;66253;50.526;14.974;2023-03-24T09:25:36;5.10;;;2.30;;
77234;SDS011;66253;50.526;14.974;2023-03-24T09:28:02;4.60;;;2.50;;
77234;SDS011;66253;50.526;14.974;2023-03-24T09:30:28;5.10;;;2.40;;
77234;SDS011;66253;50.526;14.974;2023-03-24T09:32:53;5.70;;;3.30;;
77234;SDS011;66253;50.526;14.974;2023-03-24T09:35:23;6.20;;;2.60;;
77234;SDS011;66253;50.526;14.974;2023-03-24T09:37:53;8.10;;;3.60;;
77234;SDS011;66253;50.526;14.974;2023-03-24T09:40:21;10.20;;;3.50;;
77234;SDS011;66253;50.526;14.974;2023-03-24T09:42:54;6.20;;;2.60;;
77234;SDS011;66253;50.526;14.974;2023-03-24T09:45:21;6.20;;;2.90;;
77234;SDS011;66253;50.526;14.974;2023-03-24T09:47:55;8.00;;;2.80;;
77234;SDS011;66253;50.526;14.974;2023-03-24T09:50:28;6.70;;;2.80;;
77234;SDS011;66253;50.526;14.974;2023-03-24T09:56:10;7.30;;;3.80;;
77234;SDS011;66253;50.526;14.974;2023-03-24T09:58:38;7.70;;;4.00;;
77234;SDS011;66253;50.526;14.974;2023-03-24T10:01:09;9.70;;;3.90;;
77234;SDS011;66253;50.526;14.974;2023-03-24T10:03:38;8.60;;;4.40;;
77234;SDS011;66253;50.526;14.974;2023-03-24T10:08:44;8.20;;;3.00;;
77234;SDS011;66253;50.526;14.974;2023-03-24T10:11:32;9.50;;;3.50;;
77234;SDS011;66253;50.526;14.974;2023-03-24T10:14:09;7.50;;;3.20;;
77234;SDS011;66253;50.526;14.974;2023-03-24T10:22:32;7.10;;;3.70;;
77234;SDS011;66253;50.526;14.974;2023-03-24T10:27:56;7.60;;;3.00;;
77234;SDS011;66253;50.526;14.974;2023-03-24T10:30:28;5.80;;;2.50;;
77234;SDS011;66253;50.526;14.974;2023-03-24T10:32:58;14.50;;;6.20;;
77234;SDS011;66253;50.526;14.974;2023-03-24T10:35:24;7.90;;;3.20;;
77234;SDS011;66253;50.526;14.974;2023-03-24T10:37:53;5.70;;;2.90;;
77234;SDS011;66253;50.526;14.974;2023-03-24T10:40:24;6.30;;;2.60;;
77234;SDS011;66253;50.526;14.974;2023-03-24T10:42:52;11.40;;;5.60;;
77234;SDS011;66253;50.526;14.974;2023-03-24T10:45:28;7.40;;;3.10;;
77234;SDS011;66253;50.526;14.974;2023-03-24T10:47:58;9.80;;;4.10;;
77234;SDS011;66253;50.526;14.974;2023-03-24T10:50:26;5.90;;;2.90;;
77234;SDS011;66253;50.526;14.974;2023-03-24T10:52:54;6.60;;;3.30;;
77234;SDS011;66253;50.526;14.974;2023-03-24T10:55:21;5.60;;;2.60;;
77234;SDS011;66253;50.526;14.974;2023-03-24T10:57:53;6.40;;;2.90;;
77234;SDS011;66253;50.526;14.974;2023-03-24T11:02:53;5.60;;;2.10;;
77234;SDS011;66253;50.526;14.974;2023-03-24T11:05:24;4.90;;;2.00;;
77234;SDS011;66253;50.526;14.974;2023-03-24T11:07:55;3.70;;;1.70;;
77234;SDS011;66253;50.526;14.974;2023-03-24T11:10:37;3.90;;;1.80;;
77234;SDS011;66253;50.526;14.974;2023-03-24T11:13:02;5.60;;;1.70;;
77234;SDS011;66253;50.526;14.974;2023-03-24T11:15:30;3.70;;;1.60;;
77234;SDS011;66253;50.526;14.974;2023-03-24T11:20:46;3.90;;;1.50;;
77234;SDS011;66253;50.526;14.974;2023-03-24T11:23:24;3.20;;;1.30;;
77234;SDS011;66253;50.526;14.974;2023-03-24T11:29:00;4.50;;;1.70;;
77234;SDS011;66253;50.526;14.974;2023-03-24T11:31:32;3.60;;;1.50;;
77234;SDS011;66253;50.526;14.974;2023-03-24T11:34:06;5.50;;;1.50;;
77234;SDS011;66253;50.526;14.974;2023-03-24T11:39:22;5.00;;;1.80;;
77234;SDS011;66253;50.526;14.974;2023-03-24T11:42:02;4.60;;;1.60;;
77234;SDS011;66253;50.526;14.974;2023-03-24T11:49:42;3.80;;;1.50;;
77234;SDS011;66253;50.526;14.974;2023-03-24T11:52:21;3.50;;;1.50;;
77234;SDS011;66253;50.526;14.974;2023-03-24T11:54:52;5.90;;;1.80;;
77234;SDS011;66253;50.526;14.974;2023-03-24T11:57:44;3.80;;;1.80;;
77234;SDS011;66253;50.526;14.974;2023-03-24T12:02:54;5.80;;;2.10;;
77234;SDS011;66253;50.526;14.974;2023-03-24T12:05:49;6.40;;;2.00;;
77234;SDS011;66253;50.526;14.974;2023-03-24T12:08:22;5.00;;;2.20;;
77234;SDS011;66253;50.526;14.974;2023-03-24T12:26:57;3.30;;;1.30;;
77234;SDS011;66253;50.526;14.974;2023-03-24T12:38:05;4.80;;;1.50;;
77234;SDS011;66253;50.526;14.974;2023-03-24T12:40:51;7.30;;;2.70;;
77234;SDS011;66253;50.526;14.974;2023-03-24T12:46:43;10.50;;;2.80;;
77234;SDS011;66253;50.526;14.974;2023-03-24T13:00:45;5.50;;;2.10;;
77234;SDS011;66253;50.526;14.974;2023-03-24T13:03:32;4.20;;;1.50;;
77234;SDS011;66253;50.526;14.974;2023-03-24T13:06:07;4.60;;;1.70;;
77234;SDS011;66253;50.526;14.974;2023-03-24T13:08:40;4.60;;;2.00;;
77234;SDS011;66253;50.526;14.974;2023-03-24T13:11:13;6.00;;;2.40;;
77234;SDS011;66253;50.526;14.974;2023-03-24T13:13:44;3.00;;;1.00;;
77234;SDS011;66253;50.526;14.974;2023-03-24T13:16:12;4.50;;;1.60;;
77234;SDS011;66253;50.526;14.974;2023-03-24T13:18:53;4.60;;;0.90;;
77234;SDS011;66253;50.526;14.974;2023-03-24T13:21:24;4.90;;;2.40;;
77234;SDS011;66253;50.526;14.974;2023-03-24T13:23:53;3.40;;;1.80;;
77234;SDS011;66253;50.526;14.974;2023-03-24T13:35:00;4.30;;;1.50;;
77234;SDS011;66253;50.526;14.974;2023-03-24T13:37:50;3.70;;;1.50;;
77234;SDS011;66253;50.526;14.974;2023-03-24T13:42:57;3.50;;;1.40;;
77234;SDS011;66253;50.526;14.974;2023-03-24T13:45:30;4.90;;;2.00;;
77234;SDS011;66253;50.526;14.974;2023-03-24T13:48:05;4.20;;;1.90;;
77234;SDS011;66253;50.526;14.974;2023-03-24T13:56:32;8.40;;;3.80;;
77234;SDS011;66253;50.526;14.974;2023-03-24T14:09:18;7.80;;;4.20;;
77234;SDS011;66253;50.526;14.974;2023-03-24T14:11:53;6.40;;;2.90;;
77234;SDS011;66253;50.526;14.974;2023-03-24T14:14:33;4.60;;;2.30;;
77234;SDS011;66253;50.526;14.974;2023-03-24T14:19:31;3.10;;;1.30;;
77234;SDS011;66253;50.526;14.974;2023-03-24T14:22:10;6.10;;;2.60;;
77234;SDS011;66253;50.526;14.974;2023-03-24T14:24:36;11.90;;;6.10;;
77234;SDS011;66253;50.526;14.974;2023-03-24T14:28:05;7.10;;;3.50;;
77234;SDS011;66253;50.526;14.974;2023-03-24T14:30:10;5.10;;;2.40;;
77234;SDS011;66253;50.526;14.974;2023-03-24T14:32:38;4.90;;;1.70;;
77234;SDS011;66253;50.526;14.974;2023-03-24T14:36:09;3.80;;;1.30;;
77234;SDS011;66253;50.526;14.974;2023-03-24T14:40:41;7.10;;;3.50;;
77234;SDS011;66253;50.526;14.974;2023-03-24T14:45:52;3.70;;;2.00;;
77234;SDS011;66253;50.526;14.974;2023-03-24T14:54:18;3.20;;;1.60;;
77234;SDS011;66253;50.526;14.974;2023-03-24T14:56:52;2.80;;;1.10;;
77234;SDS011;66253;50.526;14.974;2023-03-24T15:07:44;22.30;;;7.10;;
77234;SDS011;66253;50.526;14.974;2023-03-24T15:10:22;37.20;;;17.70;;
77234;SDS011;66253;50.526;14.974;2023-03-24T15:12:48;14.60;;;8.00;;
77234;SDS011;66253;50.526;14.974;2023-03-24T15:15:15;4.50;;;2.50;;
77234;SDS011;66253;50.526;14.974;2023-03-24T15:17:43;4.20;;;1.70;;
77234;SDS011;66253;50.526;14.974;2023-03-24T15:20:23;3.00;;;1.30;;
77234;SDS011;66253;50.526;14.974;2023-03-24T15:22:52;5.10;;;1.80;;
77234;SDS011;66253;50.526;14.974;2023-03-24T15:25:25;6.90;;;2.60;;
77234;SDS011;66253;50.526;14.974;2023-03-24T15:27:53;3.10;;;1.20;;
77234;SDS011;66253;50.526;14.974;2023-03-24T15:30:21;2.80;;;1.10;;
77234;SDS011;66253;50.526;14.974;2023-03-24T15:32:46;3.60;;;1.30;;
77234;SDS011;66253;50.526;14.974;2023-03-24T15:35:23;4.60;;;2.10;;
77234;SDS011;66253;50.526;14.974;2023-03-24T15:37:55;5.90;;;1.50;;
77234;SDS011;66253;50.526;14.974;2023-03-24T15:42:50;10.40;;;4.90;;
77234;SDS011;66253;50.526;14.974;2023-03-24T15:47:55;3.90;;;1.80;;
77234;SDS011;66253;50.526;14.974;2023-03-24T15:50:32;5.20;;;2.00;;
77234;SDS011;66253;50.526;14.974;2023-03-24T15:55:43;5.20;;;2.20;;
77234;SDS011;66253;50.526;14.974;2023-03-24T15:58:19;2.90;;;1.00;;
77234;SDS011;66253;50.526;14.974;2023-03-24T16:00:47;4.50;;;1.90;;
77234;SDS011;66253;50.526;14.974;2023-03-24T16:03:14;5.50;;;2.40;;
77234;SDS011;66253;50.526;14.974;2023-03-24T16:05:48;6.60;;;2.40;;
77234;SDS011;66253;50.526;14.974;2023-03-24T16:08:35;7.80;;;3.10;;
77234;SDS011;66253;50.526;14.974;2023-03-24T16:11:05;6.00;;;2.70;;
77234;SDS011;66253;50.526;14.974;2023-03-24T16:13:37;7.10;;;3.50;;
77234;SDS011;66253;50.526;14.974;2023-03-24T16:16:20;17.10;;;8.00;;
77234;SDS011;66253;50.526;14.974;2023-03-24T16:18:49;18.90;;;10.90;;
77234;SDS011;66253;50.526;14.974;2023-03-24T16:21:16;7.40;;;3.10;;
77234;SDS011;66253;50.526;14.974;2023-03-24T16:23:42;2.80;;;0.70;;
77234;SDS011;66253;50.526;14.974;2023-03-24T16:26:12;3.70;;;1.00;;
77234;SDS011;66253;50.526;14.974;2023-03-24T16:28:39;13.80;;;4.70;;
77234;SDS011;66253;50.526;14.974;2023-03-24T16:31:05;18.60;;;7.30;;
77234;SDS011;66253;50.526;14.974;2023-03-24T16:33:31;18.20;;;8.40;;
77234;SDS011;66253;50.526;14.974;2023-03-24T16:35:58;3.40;;;1.20;;
77234;SDS011;66253;50.526;14.974;2023-03-24T16:38:25;2.60;;;0.90;;
77234;SDS011;66253;50.526;14.974;2023-03-24T16:40:52;5.00;;;2.00;;
77234;SDS011;66253;50.526;14.974;2023-03-24T16:43:19;5.20;;;1.90;;
77234;SDS011;66253;50.526;14.974;2023-03-24T16:45:48;6.50;;;2.80;;
77234;SDS011;66253;50.526;14.974;2023-03-24T16:48:15;10.30;;;3.90;;
77234;SDS011;66253;50.526;14.974;2023-03-24T16:50:42;13.10;;;5.80;;
77234;SDS011;66253;50.526;14.974;2023-03-24T16:53:09;11.70;;;5.10;;
77234;SDS011;66253;50.526;14.974;2023-03-24T16:55:37;11.70;;;5.30;;
77234;SDS011;66253;50.526;14.974;2023-03-24T16:58:06;8.00;;;3.00;;
77234;SDS011;66253;50.526;14.974;2023-03-24T17:00:36;7.30;;;3.30;;
77234;SDS011;66253;50.526;14.974;2023-03-24T17:03:02;6.30;;;3.80;;
77234;SDS011;66253;50.526;14.974;2023-03-24T17:05:42;12.30;;;7.70;;
77234;SDS011;66253;50.526;14.974;2023-03-24T17:08:13;10.70;;;3.90;;
77234;SDS011;66253;50.526;14.974;2023-03-24T17:10:40;9.00;;;5.20;;
77234;SDS011;66253;50.526;14.974;2023-03-24T17:13:08;10.50;;;4.40;;
77234;SDS011;66253;50.526;14.974;2023-03-24T17:15:40;12.20;;;6.30;;
77234;SDS011;66253;50.526;14.974;2023-03-24T17:18:07;9.30;;;5.30;;
77234;SDS011;66253;50.526;14.974;2023-03-24T17:20:34;13.00;;;5.70;;
77234;SDS011;66253;50.526;14.974;2023-03-24T17:23:04;11.00;;;4.00;;
77234;SDS011;66253;50.526;14.974;2023-03-24T17:25:32;19.30;;;9.70;;
77234;SDS011;66253;50.526;14.974;2023-03-24T17:27:58;29.30;;;15.30;;
77234;SDS011;66253;50.526;14.974;2023-03-24T17:30:26;15.40;;;6.90;;
77234;SDS011;66253;50.526;14.974;2023-03-24T17:32:53;8.50;;;3.80;;
77234;SDS011;66253;50.526;14.974;2023-03-24T17:35:20;9.40;;;5.80;;
77234;SDS011;66253;50.526;14.974;2023-03-24T17:37:47;20.40;;;10.70;;
77234;SDS011;66253;50.526;14.974;2023-03-24T17:40:16;12.80;;;6.40;;
77234;SDS011;66253;50.526;14.974;2023-03-24T17:42:44;9.00;;;4.50;;
77234;SDS011;66253;50.526;14.974;2023-03-24T17:45:18;5.90;;;2.80;;
77234;SDS011;66253;50.526;14.974;2023-03-24T17:47:44;5.60;;;2.60;;
77234;SDS011;66253;50.526;14.974;2023-03-24T17:50:10;6.50;;;3.00;;
77234;SDS011;66253;50.526;14.974;2023-03-24T17:52:38;10.30;;;8.60;;
77234;SDS011;66253;50.526;14.974;2023-03-24T17:55:07;13.80;;;10.90;;
77234;SDS011;66253;50.526;14.974;2023-03-24T17:57:35;12.70;;;7.00;;
77234;SDS011;66253;50.526;14.974;2023-03-24T18:00:04;9.60;;;6.80;;